Time;durP1;ratioP1;P1;durP2;ratioP2;P2;SDS_P1;SDS_P2;PMS_P1;PMS_P2;Temp;Humidity;BMP_temperature;BMP_pressure;BME280_temperature;BME280_humidity;BME280_pressure;Samples;Min_cycle;Max_cycle;Signal;HPM_P1;HPM_P2
2022/08/03 00:01:30;;;;;;;2.2;1.8;;;;;;;18.31;84.59277;940.0725;;;;
2022/08/03 00:03:55;;;;;;;3.6;2.2;;;;;;;18.33;84.37402;940.0513;;;;
2022/08/03 00:06:23;;;;;;;2.2;1.9;;;;;;;18.29;84.38965;940.0632;;;;
2022/08/03 00:08:48;;;;;;;3;1.7;;;;;;;18.17;85.01855;940.0828;;;;
2022/08/03 00:11:15;;;;;;;2.6;1.6;;;;;;;18.22;84.7832;940.0444;;;;
2022/08/03 00:13:40;;;;;;;1.7;1.6;;;;;;;18.28;84.4209;940.0482;;;;
2022/08/03 00:16:09;;;;;;;2.2;1.5;;;;;;;18.25;84.41797;940.0358;;;;
2022/08/03 00:18:33;;;;;;;1.6;1.5;;;;;;;18.18;84.81055;940.0204;;;;
2022/08/03 00:20:59;;;;;;;2;1.6;;;;;;;18.15;84.83887;939.9832;;;;
2022/08/03 00:23:24;;;;;;;1.9;1.7;;;;;;;18.16;84.95801;940.0128;;;;
2022/08/03 00:25:50;;;;;;;2.8;1.9;;;;;;;18.13;85.06738;939.9706;;;;
2022/08/03 00:28:15;;;;;;;2.5;1.9;;;;;;;18.19;84.59375;939.9252;;;;
2022/08/03 00:30:42;;;;;;;2.7;1.9;;;;;;;18.26;84.13867;939.8929;;;;
2022/08/03 00:33:09;;;;;;;2.9;2;;;;;;;18.22;84.41309;939.9766;;;;
2022/08/03 00:35:33;;;;;;;3;1.5;;;;;;;18.17;84.33301;939.9224;;;;
2022/08/03 00:37:59;;;;;;;1.9;1.8;;;;;;;18.12;84.54492;939.8886;;;;
2022/08/03 00:40:24;;;;;;;1.9;1.7;;;;;;;18.11;84.55273;939.8895;;;;
2022/08/03 00:42:52;;;;;;;2.9;1.9;;;;;;;17.86;85.76953;939.8378;;;;
2022/08/03 00:45:19;;;;;;;2;1.7;;;;;;;17.65;86.98242;939.731;;;;
2022/08/03 00:47:44;;;;;;;2;1.7;;;;;;;17.75;86.61914;939.8095;;;;
2022/08/03 00:50:10;;;;;;;2.8;1.7;;;;;;;17.79;86.10547;939.8072;;;;
2022/08/03 00:52:35;;;;;;;2.2;1.6;;;;;;;17.77;86.30957;939.8139;;;;
2022/08/03 00:55:01;;;;;;;2.1;1.8;;;;;;;17.66;86.75195;939.7775;;;;
2022/08/03 00:57:26;;;;;;;2.6;1.8;;;;;;;17.63;86.63086;939.8005;;;;
2022/08/03 00:59:52;;;;;;;5.5;2.1;;;;;;;17.61;86.91797;939.8286;;;;
2022/08/03 01:02:17;;;;;;;2.4;1.7;;;;;;;17.59;87.36523;939.7855;;;;
2022/08/03 01:04:42;;;;;;;2.6;1.7;;;;;;;17.63;86.98047;939.8286;;;;
2022/08/03 01:07:10;;;;;;;2.2;1.8;;;;;;;17.65;87.00586;939.8275;;;;
2022/08/03 01:09:36;;;;;;;2.3;2.1;;;;;;;17.67;86.87012;939.8603;;;;
2022/08/03 01:12:01;;;;;;;2.1;1.7;;;;;;;17.66;87.32324;939.8041;;;;
2022/08/03 01:14:27;;;;;;;4.7;2.1;;;;;;;17.74;86.4082;939.7612;;;;
2022/08/03 01:16:54;;;;;;;2.1;1.8;;;;;;;17.77;86.04199;939.7745;;;;
2022/08/03 01:19:19;;;;;;;2;1.8;;;;;;;17.84;85.7666;939.7922;;;;
2022/08/03 01:21:45;;;;;;;2.2;1.9;;;;;;;17.84;85.80273;939.8027;;;;
2022/08/03 01:24:11;;;;;;;2;1.8;;;;;;;17.77;85.79883;939.7222;;;;
2022/08/03 01:26:36;;;;;;;3.3;1.8;;;;;;;17.7;85.99512;939.6942;;;;
2022/08/03 01:29:03;;;;;;;2.1;1.6;;;;;;;17.66;85.87012;939.7437;;;;
2022/08/03 01:31:28;;;;;;;2;1.8;;;;;;;17.6;86.13672;939.725;;;;
2022/08/03 01:33:57;;;;;;;2.5;1.9;;;;;;;17.41;87.08691;939.7846;;;;
2022/08/03 01:36:22;;;;;;;2.8;2;;;;;;;17.33;87.90625;939.7495;;;;
2022/08/03 01:38:47;;;;;;;2.9;1.8;;;;;;;17.36;88.1084;939.7291;;;;
2022/08/03 01:41:15;;;;;;;4.5;2.2;;;;;;;17.35;87.64258;939.73;;;;
2022/08/03 01:43:41;;;;;;;3;1.8;;;;;;;17.42;87.03125;939.7083;;;;
2022/08/03 01:46:06;;;;;;;2.2;2;;;;;;;17.42;86.90332;939.6656;;;;
2022/08/03 01:48:36;;;;;;;3;1.8;;;;;;;17.45;86.80566;939.711;;;;
2022/08/03 01:51:01;;;;;;;2.2;1.9;;;;;;;17.41;86.96973;939.6816;;;;
2022/08/03 01:53:29;;;;;;;3.5;1.8;;;;;;;17.4;87.07227;939.6809;;;;
2022/08/03 01:55:54;;;;;;;4.4;1.9;;;;;;;17.38;86.96582;939.6941;;;;
2022/08/03 01:58:20;;;;;;;1.9;1.8;;;;;;;17.26;87.52051;939.6636;;;;
2022/08/03 02:00:45;;;;;;;3.9;2.4;;;;;;;17.27;87.53613;939.6096;;;;
2022/08/03 02:03:14;;;;;;;2.6;1.7;;;;;;;17.2;88.05273;939.7261;;;;
2022/08/03 02:05:39;;;;;;;2.5;2.1;;;;;;;17.13;88.3877;939.6933;;;;
2022/08/03 02:08:06;;;;;;;2.3;2;;;;;;;17.06;88.80176;939.6766;;;;
2022/08/03 02:10:31;;;;;;;3.8;1.8;;;;;;;17.07;88.6416;939.6322;;;;
2022/08/03 02:12:57;;;;;;;2.1;1.9;;;;;;;17.04;88.65918;939.6768;;;;
2022/08/03 02:15:24;;;;;;;2.2;2;;;;;;;16.94;89.12598;939.6384;;;;
2022/08/03 02:17:52;;;;;;;2.3;1.9;;;;;;;16.91;89.26953;939.6331;;;;
2022/08/03 02:20:17;;;;;;;4;1.6;;;;;;;16.79;89.88477;939.6334;;;;
2022/08/03 02:22:46;;;;;;;1.9;1.8;;;;;;;16.72;90.71289;939.5611;;;;
2022/08/03 02:25:16;;;;;;;2.2;1.7;;;;;;;16.8;90.2666;939.6221;;;;
2022/08/03 02:27:41;;;;;;;1.8;1.7;;;;;;;16.87;89.67871;939.6465;;;;
2022/08/03 02:30:07;;;;;;;2.2;2;;;;;;;16.79;90.20703;939.5628;;;;
2022/08/03 02:32:35;;;;;;;2.3;1.9;;;;;;;16.81;90.04688;939.6019;;;;
2022/08/03 02:35:00;;;;;;;3.4;1.8;;;;;;;16.81;89.90918;939.5818;;;;
2022/08/03 02:37:25;;;;;;;3;2.1;;;;;;;16.84;89.94922;939.5673;;;;
2022/08/03 02:39:52;;;;;;;2;1.8;;;;;;;16.69;90.13965;939.5857;;;;
2022/08/03 02:42:16;;;;;;;2.2;1.7;;;;;;;16.42;91.73926;939.5775;;;;
2022/08/03 02:44:46;;;;;;;4.2;2.3;;;;;;;16.5;91.40918;939.5921;;;;
2022/08/03 02:47:06;;;;;;;3.5;2.2;;;;;;;16.32;92.48047;939.5745;;;;
2022/08/03 02:49:31;;;;;;;2.7;2;;;;;;;16.4;92.37012;939.4957;;;;
2022/08/03 02:51:56;;;;;;;2.1;1.8;;;;;;;16.54;91.50879;939.512;;;;
2022/08/03 02:54:22;;;;;;;2.4;1.6;;;;;;;16.62;90.9707;939.5219;;;;
2022/08/03 02:56:47;;;;;;;2.1;1.7;;;;;;;16.72;90.36523;939.5041;;;;
2022/08/03 02:59:17;;;;;;;2.2;1.7;;;;;;;16.79;89.74512;939.4277;;;;
2022/08/03 03:01:42;;;;;;;2.2;1.8;;;;;;;16.84;89.26758;939.4803;;;;
2022/08/03 03:04:08;;;;;;;13.5;2.1;;;;;;;16.82;89.13477;939.4394;;;;
2022/08/03 03:06:33;;;;;;;2.9;1.9;;;;;;;16.8;89.54883;939.4991;;;;
2022/08/03 03:09:00;;;;;;;2.9;1.9;;;;;;;16.7;90.39648;939.4681;;;;
2022/08/03 03:11:25;;;;;;;2.1;1.7;;;;;;;16.71;89.78613;939.4695;;;;
2022/08/03 03:13:52;;;;;;;2.3;2;;;;;;;16.75;89.44434;939.4483;;;;
2022/08/03 03:16:17;;;;;;;2.7;1.7;;;;;;;16.73;89.25586;939.4252;;;;
2022/08/03 03:18:44;;;;;;;2.5;1.7;;;;;;;16.68;89.39551;939.3912;;;;
2022/08/03 03:21:09;;;;;;;3.2;1.7;;;;;;;16.63;89.58105;939.4358;;;;
2022/08/03 03:23:37;;;;;;;2.2;1.9;;;;;;;16.45;90.55078;939.4625;;;;
2022/08/03 03:26:02;;;;;;;3.6;1.9;;;;;;;16.45;90.30957;939.3997;;;;
2022/08/03 03:28:28;;;;;;;2.7;2.4;;;;;;;16.42;90.33887;939.437;;;;
2022/08/03 03:30:53;;;;;;;4.4;2.3;;;;;;;16.37;90.64063;939.3956;;;;
2022/08/03 03:33:20;;;;;;;2.6;2;;;;;;;16.34;90.91211;939.4802;;;;
2022/08/03 03:35:45;;;;;;;2;1.7;;;;;;;16.41;89.93164;939.4296;;;;
2022/08/03 03:38:15;;;;;;;1.7;1.6;;;;;;;16.58;89.00586;939.4745;;;;
2022/08/03 03:40:45;;;;;;;2.1;1.9;;;;;;;16.52;89.36426;939.5323;;;;
2022/08/03 03:43:10;;;;;;;2.7;1.8;;;;;;;16.47;90.16309;939.4871;;;;
2022/08/03 03:45:38;;;;;;;2.7;2.1;;;;;;;16.34;91.49121;939.4584;;;;
2022/08/03 03:48:04;;;;;;;3.1;1.9;;;;;;;16.38;91.5;939.5208;;;;
2022/08/03 03:50:33;;;;;;;3.2;2;;;;;;;16.43;91.30176;939.5278;;;;
2022/08/03 03:53:02;;;;;;;3;2.3;;;;;;;16.4;91.23633;939.4724;;;;
2022/08/03 03:55:28;;;;;;;5.6;2.9;;;;;;;16.38;91.25586;939.5063;;;;
2022/08/03 03:57:57;;;;;;;4.8;2.3;;;;;;;16.37;91.03516;939.5642;;;;
2022/08/03 04:02:34;;;;;;;3.3;2.2;;;;;;;16.42;90.62793;939.4989;;;;
2022/08/03 04:12:25;;;;;;;8.5;4.8;;;;;;;16.14;92.28223;939.5897;;;;
2022/08/03 04:14:50;;;;;;;12;6.2;;;;;;;16.15;92.22656;939.5422;;;;
2022/08/03 04:17:18;;;;;;;11;6.6;;;;;;;16.27;91.34863;939.5903;;;;
2022/08/03 04:19:43;;;;;;;7.9;5.1;;;;;;;16.31;90.82617;939.5119;;;;
2022/08/03 04:22:10;;;;;;;3.4;2.7;;;;;;;16.26;90.17773;939.5687;;;;
2022/08/03 04:24:35;;;;;;;5.8;3.5;;;;;;;16.39;90.0791;939.5641;;;;
2022/08/03 04:27:00;;;;;;;6.9;3.8;;;;;;;16.49;89.64551;939.6806;;;;
2022/08/03 04:29:27;;;;;;;11.3;4.8;;;;;;;16.34;89.80176;939.6192;;;;
2022/08/03 04:31:52;;;;;;;6.8;3.1;;;;;;;16.22;90.88574;939.6744;;;;
2022/08/03 04:34:21;;;;;;;3.3;2.6;;;;;;;16.21;90.88574;939.6203;;;;
2022/08/03 04:36:46;;;;;;;5.4;3.1;;;;;;;16.26;90.77051;939.6378;;;;
2022/08/03 04:39:11;;;;;;;3.8;2.3;;;;;;;16.19;91.35449;939.6141;;;;
2022/08/03 04:41:40;;;;;;;5.2;2.4;;;;;;;16.36;90.90625;939.5966;;;;
2022/08/03 04:44:10;;;;;;;2.8;2;;;;;;;16.35;90.46289;939.6176;;;;
2022/08/03 04:46:35;;;;;;;4.8;2.2;;;;;;;16.38;90.44531;939.6486;;;;
2022/08/03 04:49:06;;;;;;;2.9;2.2;;;;;;;16.35;90.47461;939.6674;;;;
2022/08/03 04:51:37;;;;;;;5.1;2.2;;;;;;;16.46;89.96484;939.6617;;;;
2022/08/03 04:54:00;;;;;;;4.4;2.7;;;;;;;16.49;89.85645;939.6445;;;;
2022/08/03 04:56:27;;;;;;;5.2;2.9;;;;;;;16.49;89.46289;939.6727;;;;
2022/08/03 04:58:52;;;;;;;14.9;8.9;;;;;;;16.44;89.71777;939.7045;;;;
2022/08/03 05:01:19;;;;;;;32.5;16.4;;;;;;;16.38;90.00586;939.6478;;;;
2022/08/03 05:03:44;;;;;;;38.1;19.8;;;;;;;16.33;90.50586;939.6692;;;;
2022/08/03 05:06:14;;;;;;;45;23.6;;;;;;;16.33;90.5166;939.7271;;;;
2022/08/03 05:08:44;;;;;;;10.9;6.8;;;;;;;16.25;91.03223;939.6074;;;;
2022/08/03 05:11:16;;;;;;;9.5;5;;;;;;;16.3;91.30762;939.6792;;;;
2022/08/03 05:13:41;;;;;;;4.3;2.6;;;;;;;16.36;91.35742;939.7203;;;;
2022/08/03 05:16:08;;;;;;;5.7;2.6;;;;;;;16.5;90.67773;939.6733;;;;
2022/08/03 05:18:34;;;;;;;3.7;2;;;;;;;16.61;90.13477;939.7106;;;;
2022/08/03 05:21:01;;;;;;;2.3;2;;;;;;;16.72;89.62402;939.7341;;;;
2022/08/03 05:23:26;;;;;;;2.3;2.1;;;;;;;16.87;88.6709;939.6746;;;;
2022/08/03 05:25:54;;;;;;;3;2.3;;;;;;;16.95;88.50195;939.6261;;;;
2022/08/03 05:28:19;;;;;;;3.9;2.5;;;;;;;17.11;89.1123;939.6517;;;;
2022/08/03 05:30:46;;;;;;;2.9;1.8;;;;;;;18;84.75098;939.647;;;;
2022/08/03 05:33:11;;;;;;;4;2.5;;;;;;;19.57;78.76074;939.6233;;;;
2022/08/03 05:35:38;;;;;;;4.1;2.6;;;;;;;21.12;71.77246;939.6197;;;;
2022/08/03 05:38:03;;;;;;;3.7;2.3;;;;;;;21.81;67.7832;939.6113;;;;
2022/08/03 05:40:31;;;;;;;3;1.5;;;;;;;22.73;63.93457;939.5723;;;;
2022/08/03 05:42:56;;;;;;;3;1.8;;;;;;;24.03;59.90625;939.5687;;;;
2022/08/03 05:45:24;;;;;;;1.9;1.5;;;;;;;25.15;55.05176;939.5422;;;;
2022/08/03 05:47:49;;;;;;;2.3;1.7;;;;;;;25.25;53.92969;939.5417;;;;
2022/08/03 05:50:21;;;;;;;4.4;1.6;;;;;;;25.76;52.50293;939.5945;;;;
2022/08/03 05:52:47;;;;;;;1.6;1.5;;;;;;;26.12;51.84668;939.533;;;;
2022/08/03 05:55:13;;;;;;;3.5;1.7;;;;;;;26.84;51.11133;939.5197;;;;
2022/08/03 05:57:42;;;;;;;5;1.9;;;;;;;26.74;50.23633;939.4998;;;;
2022/08/03 06:00:07;;;;;;;2.1;1.3;;;;;;;28.01;47.21875;939.4838;;;;
2022/08/03 06:02:35;;;;;;;3.3;1.5;;;;;;;28.1;46.86035;939.4871;;;;
2022/08/03 06:05:00;;;;;;;1.9;1.4;;;;;;;28.85;44.62891;939.4817;;;;
2022/08/03 06:07:29;;;;;;;1.3;1.2;;;;;;;29.52;43.12207;939.4568;;;;
2022/08/03 06:10:00;;;;;;;2.1;1.5;;;;;;;29.58;42.4375;939.3792;;;;
2022/08/03 06:12:24;;;;;;;1.9;1.2;;;;;;;29.18;43.18457;939.4417;;;;
2022/08/03 06:14:53;;;;;;;1.8;1.2;;;;;;;29.69;42.42285;939.4197;;;;
2022/08/03 06:17:19;;;;;;;1.4;1.3;;;;;;;28.47;43.71191;939.3886;;;;
2022/08/03 06:19:44;;;;;;;2.3;1.2;;;;;;;28.79;44.20801;939.4241;;;;
2022/08/03 06:22:09;;;;;;;2;1.2;;;;;;;30.22;41.45801;939.4178;;;;
2022/08/03 06:24:35;;;;;;;1.2;1.1;;;;;;;30.84;39.20703;939.4083;;;;
2022/08/03 06:27:01;;;;;;;1.8;1.2;;;;;;;30.38;41.00684;939.4104;;;;
2022/08/03 06:29:27;;;;;;;2.2;1.1;;;;;;;32.02;38.49512;939.3973;;;;
2022/08/03 06:31:52;;;;;;;1.2;1.1;;;;;;;31.78;38.40332;939.3984;;;;
2022/08/03 06:34:19;;;;;;;1;1;;;;;;;32.77;36.85449;939.4023;;;;
2022/08/03 06:36:43;;;;;;;1.3;1.2;;;;;;;33.59;34.51465;939.3792;;;;
2022/08/03 06:39:13;;;;;;;2;1.1;;;;;;;33.38;34.7998;939.3272;;;;
2022/08/03 06:41:43;;;;;;;1.3;1.2;;;;;;;32.67;36.62988;939.3334;;;;
2022/08/03 06:44:08;;;;;;;2.2;1.2;;;;;;;31.99;37.28223;939.2819;;;;
2022/08/03 06:46:36;;;;;;;1.9;1.1;;;;;;;32.51;37.07324;939.3094;;;;
2022/08/03 06:49:01;;;;;;;1.4;1.2;;;;;;;31.42;38.28906;939.3203;;;;
2022/08/03 06:51:28;;;;;;;3.9;1.8;;;;;;;33.57;35.5957;939.2866;;;;
2022/08/03 06:53:52;;;;;;;2.5;1.3;;;;;;;34.45;33.74902;939.3174;;;;
2022/08/03 06:56:19;;;;;;;1;1;;;;;;;34.8;32.61719;939.3159;;;;
2022/08/03 06:58:43;;;;;;;1.1;1;;;;;;;35.51;32.63184;939.3606;;;;
2022/08/03 07:01:10;;;;;;;1.9;1;;;;;;;36.38;31.45898;939.3899;;;;
2022/08/03 07:03:35;;;;;;;2.6;1.2;;;;;;;35.7;31.25586;939.353;;;;
2022/08/03 07:06:03;;;;;;;1.3;1.2;;;;;;;36.5;30.52441;939.3638;;;;
2022/08/03 07:08:28;;;;;;;1.1;1.1;;;;;;;36.87;29.77344;939.3095;;;;
2022/08/03 07:10:56;;;;;;;1.3;1.2;;;;;;;35.41;31.81543;939.3118;;;;
2022/08/03 07:13:21;;;;;;;2.8;1.3;;;;;;;34.7;32.50195;939.2231;;;;
2022/08/03 07:15:46;;;;;;;1;1;;;;;;;34.69;33.36914;939.2068;;;;
2022/08/03 07:18:11;;;;;;;1.2;1.1;;;;;;;35.43;30.69336;939.1736;;;;
2022/08/03 07:20:41;;;;;;;2;1.1;;;;;;;36.4;31.03711;939.2145;;;;
2022/08/03 07:23:05;;;;;;;2.6;1.1;;;;;;;34.51;31.86133;939.1387;;;;
2022/08/03 07:25:35;;;;;;;2.5;1.4;;;;;;;35.49;32.49805;939.1355;;;;
2022/08/03 07:28:02;;;;;;;1.7;1.2;;;;;;;36.73;29.25586;939.1378;;;;
2022/08/03 07:30:28;;;;;;;3.9;1.2;;;;;;;37.94;29.06543;939.1567;;;;
2022/08/03 07:32:54;;;;;;;1.1;1;;;;;;;38.54;27.62109;939.0983;;;;
2022/08/03 07:35:19;;;;;;;1.3;1.1;;;;;;;38.63;28.00293;939.0728;;;;
2022/08/03 07:37:44;;;;;;;2.3;1.3;;;;;;;38.35;28.05859;939.0712;;;;
2022/08/03 07:40:16;;;;;;;1.8;1.3;;;;;;;38.05;27.09375;939.058;;;;
2022/08/03 07:42:43;;;;;;;1.1;1.1;;;;;;;38.75;27.19531;939.0542;;;;
2022/08/03 07:45:09;;;;;;;1.3;1.2;;;;;;;36.9;28.21289;939.0493;;;;
2022/08/03 07:47:42;;;;;;;1.3;1.2;;;;;;;37.53;27.95996;939.0315;;;;
2022/08/03 07:50:14;;;;;;;1.3;1.2;;;;;;;37.62;27.58887;939.0725;;;;
2022/08/03 07:52:48;;;;;;;1.4;1.3;;;;;;;38.54;27.06055;939.0278;;;;
2022/08/03 07:55:13;;;;;;;1.7;1.5;;;;;;;38.18;26.91895;939.0397;;;;
2022/08/03 07:57:47;;;;;;;1.2;1.1;;;;;;;37.65;27.76074;939.0045;;;;
2022/08/03 08:00:13;;;;;;;1.4;1;;;;;;;38.71;27.55762;938.9411;;;;
2022/08/03 08:02:37;;;;;;;1.3;1.2;;;;;;;39.97;24.57227;938.9309;;;;
2022/08/03 08:05:07;;;;;;;1.2;1.1;;;;;;;38.83;26.37305;938.9338;;;;
2022/08/03 08:07:38;;;;;;;2.8;1.3;;;;;;;38;27.27246;938.9174;;;;
2022/08/03 08:10:03;;;;;;;1.1;1;;;;;;;38.28;26.83984;938.9473;;;;
2022/08/03 08:12:31;;;;;;;1.5;1.2;;;;;;;39.07;26.54492;938.9573;;;;
2022/08/03 08:15:00;;;;;;;1.4;1.3;;;;;;;39.22;26.66309;938.8649;;;;
2022/08/03 08:17:25;;;;;;;1.1;1;;;;;;;38.54;25.56543;938.8857;;;;
2022/08/03 08:19:50;;;;;;;1.3;1.2;;;;;;;38.77;26.63672;938.8434;;;;
2022/08/03 08:22:15;;;;;;;2;1;;;;;;;38.05;28.0166;938.8517;;;;
2022/08/03 08:24:43;;;;;;;1.3;1.2;;;;;;;39.59;25.78223;938.8711;;;;
2022/08/03 08:27:10;;;;;;;0.9;0.9;;;;;;;40.78;23.08789;938.8828;;;;
2022/08/03 08:29:37;;;;;;;1.1;1.1;;;;;;;40.78;22.72168;938.812;;;;
2022/08/03 08:32:02;;;;;;;1.5;1.1;;;;;;;40.32;23.80957;938.8306;;;;
2022/08/03 08:34:28;;;;;;;1.6;1.1;;;;;;;39.45;24.09375;938.7639;;;;
2022/08/03 08:36:53;;;;;;;1.1;1.1;;;;;;;39.51;23.8291;938.7224;;;;
2022/08/03 08:39:21;;;;;;;1.1;1;;;;;;;38.69;25.4043;938.7556;;;;
2022/08/03 08:41:46;;;;;;;1.4;1;;;;;;;39.22;23.91113;938.712;;;;
2022/08/03 08:44:14;;;;;;;1.6;1.1;;;;;;;39.08;25.04883;938.6917;;;;
2022/08/03 08:46:39;;;;;;;1.3;1.1;;;;;;;39.95;23.82715;938.7581;;;;
2022/08/03 08:49:05;;;;;;;1.5;1.3;;;;;;;38.91;25.73242;938.7143;;;;
2022/08/03 08:51:30;;;;;;;1.4;1.3;;;;;;;39.58;24.74609;938.6905;;;;
2022/08/03 08:53:55;;;;;;;1.1;1.1;;;;;;;39.04;26.44531;938.6819;;;;
2022/08/03 08:56:20;;;;;;;1.2;1.1;;;;;;;39.13;26.11035;938.6964;;;;
2022/08/03 08:58:45;;;;;;;1.3;1.2;;;;;;;38.48;26.66797;938.6809;;;;
2022/08/03 09:01:11;;;;;;;1.2;1.1;;;;;;;39.48;25.38672;938.7012;;;;
2022/08/03 09:03:37;;;;;;;1.9;1.1;;;;;;;39.63;25.1875;938.6906;;;;
2022/08/03 09:06:07;;;;;;;1.2;1.1;;;;;;;41.01;23.95605;938.6611;;;;
2022/08/03 09:08:32;;;;;;;1.5;1.2;;;;;;;40.01;26.61035;938.6852;;;;
2022/08/03 09:10:57;;;;;;;1.1;1.1;;;;;;;39.37;27.24414;938.6827;;;;
2022/08/03 09:13:22;;;;;;;1.5;1.2;;;;;;;38.46;28.40527;938.6514;;;;
2022/08/03 09:15:55;;;;;;;1.4;1.3;;;;;;;39.12;27.00977;938.6919;;;;
2022/08/03 09:18:20;;;;;;;1.4;1.3;;;;;;;37.69;27.8125;938.6481;;;;
2022/08/03 09:20:45;;;;;;;2;1.3;;;;;;;38.03;28.24512;938.6487;;;;
2022/08/03 09:23:11;;;;;;;1.5;1.2;;;;;;;37.66;29.88477;938.6683;;;;
2022/08/03 09:25:44;;;;;;;1.4;1.3;;;;;;;38.28;28.80762;938.6222;;;;
2022/08/03 09:28:08;;;;;;;1.9;1.4;;;;;;;36.23;32.13867;938.6539;;;;
2022/08/03 09:30:36;;;;;;;1.5;1.2;;;;;;;36.14;31.05664;938.6458;;;;
2022/08/03 09:33:02;;;;;;;2.3;1.3;;;;;;;36.19;32.72852;938.6117;;;;
2022/08/03 09:35:27;;;;;;;1.3;1.2;;;;;;;35.45;32.0957;938.5923;;;;
2022/08/03 09:37:52;;;;;;;1.4;1.3;;;;;;;34.85;34.62305;938.5725;;;;
2022/08/03 09:40:22;;;;;;;1.3;1.2;;;;;;;35.53;32.91016;938.5745;;;;
2022/08/03 09:42:52;;;;;;;2;1.3;;;;;;;35.45;31.55273;938.5869;;;;
2022/08/03 09:45:18;;;;;;;1.3;1.2;;;;;;;34.74;32.09375;938.514;;;;
2022/08/03 09:47:45;;;;;;;0.9;0.9;;;;;;;35.09;31.88965;938.5374;;;;
2022/08/03 09:50:11;;;;;;;1.8;1.1;;;;;;;35.68;30.87988;938.6002;;;;
2022/08/03 09:52:40;;;;;;;1;1;;;;;;;36.24;30.30078;938.5131;;;;
2022/08/03 09:55:05;;;;;;;1.9;1.1;;;;;;;35.28;31.49219;938.5483;;;;
2022/08/03 09:57:31;;;;;;;1.4;1.2;;;;;;;35.87;31.49707;938.5104;;;;
2022/08/03 09:59:57;;;;;;;2.1;1.4;;;;;;;36.71;30.81641;938.541;;;;
2022/08/03 10:02:20;;;;;;;1.5;1.4;;;;;;;36.61;31.94727;938.5275;;;;
2022/08/03 10:04:49;;;;;;;1.3;1.2;;;;;;;36;33.00586;938.5063;;;;
2022/08/03 10:07:12;;;;;;;1.4;1.3;;;;;;;35.55;34.37402;938.4785;;;;
2022/08/03 10:09:39;;;;;;;1.5;1.4;;;;;;;36.14;33.7168;938.4395;;;;
2022/08/03 10:12:05;;;;;;;1.9;1.4;;;;;;;36.45;31.93652;938.4508;;;;
2022/08/03 10:14:33;;;;;;;2.3;1.8;;;;;;;35.29;36.22461;938.4244;;;;
2022/08/03 10:16:58;;;;;;;1.3;1.2;;;;;;;34.52;36.91113;938.3756;;;;
2022/08/03 10:19:24;;;;;;;1.4;1.2;;;;;;;33.6;37.33008;938.3667;;;;
2022/08/03 10:21:49;;;;;;;1.6;1.2;;;;;;;34.89;34.38477;938.3186;;;;
2022/08/03 10:24:14;;;;;;;1.2;1.1;;;;;;;35.21;35.21777;938.3711;;;;
2022/08/03 10:26:39;;;;;;;2.4;1.3;;;;;;;35.09;34.67676;938.3259;;;;
2022/08/03 10:29:08;;;;;;;1.8;1.1;;;;;;;35.57;35.11133;938.3489;;;;
2022/08/03 10:31:32;;;;;;;3.2;1.6;;;;;;;36.14;33.43848;938.2813;;;;
2022/08/03 10:33:57;;;;;;;1.5;1.1;;;;;;;35.47;33.55957;938.2819;;;;
2022/08/03 10:36:26;;;;;;;1.4;1;;;;;;;36.04;33.95117;938.2841;;;;
2022/08/03 10:38:55;;;;;;;1.3;1.2;;;;;;;36.66;32.36328;938.2392;;;;
2022/08/03 10:41:20;;;;;;;1.4;1.2;;;;;;;36.7;31.48145;938.2575;;;;
2022/08/03 10:43:47;;;;;;;1.2;1.1;;;;;;;36.84;32.70215;938.2339;;;;
2022/08/03 10:46:12;;;;;;;1.7;1.1;;;;;;;35.97;35.9043;938.1636;;;;
2022/08/03 10:48:37;;;;;;;1.5;1.2;;;;;;;34.77;36.89551;938.1414;;;;
2022/08/03 10:51:03;;;;;;;1.5;1.3;;;;;;;34.81;35.4873;938.0947;;;;
2022/08/03 10:53:37;;;;;;;1.9;1.2;;;;;;;35.32;34.80371;938.1357;;;;
2022/08/03 10:58:27;;;;;;;3.7;1.3;;;;;;;36.19;34.65137;938.075;;;;
2022/08/03 11:00:52;;;;;;;2.6;1.6;;;;;;;36.74;32.88965;938.1164;;;;
2022/08/03 11:03:20;;;;;;;1.7;1.1;;;;;;;36.3;34.92578;938.1616;;;;
2022/08/03 11:05:45;;;;;;;1.4;1.3;;;;;;;36.04;33.625;938.0353;;;;
2022/08/03 11:08:13;;;;;;;2.4;1.2;;;;;;;36.22;33.49316;938.1042;;;;
2022/08/03 11:10:39;;;;;;;2.4;1.5;;;;;;;36.35;34.03516;938.0428;;;;
2022/08/03 11:13:06;;;;;;;1.4;1.3;;;;;;;36.8;33.24512;938.043;;;;
2022/08/03 11:15:37;;;;;;;1.4;1.3;;;;;;;36.01;35.09766;938.0676;;;;
2022/08/03 11:18:02;;;;;;;2.9;1.4;;;;;;;35.99;35.80859;938.0031;;;;
2022/08/03 11:20:27;;;;;;;1.5;1.4;;;;;;;36.08;35.71973;937.9846;;;;
2022/08/03 11:22:53;;;;;;;1.6;1.4;;;;;;;36.6;33.72559;937.9752;;;;
2022/08/03 11:25:22;;;;;;;2.1;1.2;;;;;;;36.67;34.37305;938.0186;;;;
2022/08/03 11:27:49;;;;;;;1.2;1.2;;;;;;;36.01;34.39648;937.9703;;;;
2022/08/03 11:30:15;;;;;;;2.6;1.4;;;;;;;34.93;36.22168;937.9464;;;;
2022/08/03 11:32:46;;;;;;;2.9;1.5;;;;;;;35.59;35.92383;937.9529;;;;
2022/08/03 11:35:10;;;;;;;2;1.4;;;;;;;36.05;34.54492;937.8956;;;;
2022/08/03 11:37:35;;;;;;;1.7;1.3;;;;;;;36.56;34.11035;937.8196;;;;
2022/08/03 11:40:00;;;;;;;2.1;1.3;;;;;;;36.34;34.51758;937.8574;;;;
2022/08/03 11:42:32;;;;;;;1.5;1.3;;;;;;;35.96;35.02148;937.8086;;;;
2022/08/03 11:44:58;;;;;;;1.7;1.3;;;;;;;35.45;35.89941;937.8583;;;;
2022/08/03 11:47:25;;;;;;;1.7;1.4;;;;;;;34.23;38.58594;937.8214;;;;
2022/08/03 11:49:49;;;;;;;1.4;1.3;;;;;;;33.79;39.22363;937.8734;;;;
2022/08/03 11:52:14;;;;;;;1.4;1.3;;;;;;;33.12;40.54688;937.839;;;;
2022/08/03 11:54:43;;;;;;;2.1;1.2;;;;;;;32.53;40.35059;937.8448;;;;
2022/08/03 11:57:08;;;;;;;1.8;1.4;;;;;;;32.31;41.13477;937.8387;;;;
2022/08/03 11:59:36;;;;;;;1.3;1.2;;;;;;;32.59;41.45996;937.8055;;;;
2022/08/03 12:02:06;;;;;;;1.4;1.3;;;;;;;32.34;41.41309;937.736;;;;
2022/08/03 12:04:33;;;;;;;3.6;1.3;;;;;;;32.54;41.88672;937.7583;;;;
2022/08/03 12:06:58;;;;;;;1.3;1.2;;;;;;;32.49;40.63477;937.7327;;;;
2022/08/03 12:09:23;;;;;;;2.5;1.7;;;;;;;32.4;41.29883;937.7;;;;
2022/08/03 12:11:54;;;;;;;1.4;1.3;;;;;;;32.45;42.41797;937.7297;;;;
2022/08/03 12:14:18;;;;;;;1.3;1.2;;;;;;;32.35;42.40918;937.7388;;;;
2022/08/03 12:16:44;;;;;;;1.5;1.4;;;;;;;32.15;40.8916;937.7286;;;;
2022/08/03 12:19:16;;;;;;;1.4;1.3;;;;;;;31.86;42.07617;937.748;;;;
2022/08/03 12:21:42;;;;;;;1.7;1.3;;;;;;;31.72;42.33789;937.6694;;;;
2022/08/03 12:24:07;;;;;;;1.8;1.4;;;;;;;31.95;42.77832;937.7156;;;;
2022/08/03 12:26:32;;;;;;;1.5;1.3;;;;;;;31.97;42.68457;937.663;;;;
2022/08/03 12:28:59;;;;;;;1.5;1.4;;;;;;;32.12;42.50684;937.688;;;;
2022/08/03 12:31:24;;;;;;;1.8;1.4;;;;;;;31.96;43.53418;937.6628;;;;
2022/08/03 12:33:51;;;;;;;1.4;1.3;;;;;;;32.1;42.00195;937.6807;;;;
2022/08/03 12:36:16;;;;;;;1.4;1.3;;;;;;;32.07;42.02344;937.6635;;;;
2022/08/03 12:38:42;;;;;;;1.5;1.4;;;;;;;31.88;42.73633;937.6458;;;;
2022/08/03 12:41:12;;;;;;;1.8;1.4;;;;;;;31.73;43.72852;937.6789;;;;
2022/08/03 12:43:34;;;;;;;1.5;1.4;;;;;;;31.87;43.04688;937.6175;;;;
2022/08/03 12:45:59;;;;;;;1.4;1.3;;;;;;;31.99;41.7041;937.6116;;;;
2022/08/03 12:48:24;;;;;;;1.3;1.1;;;;;;;31.84;43.27246;937.6484;;;;
2022/08/03 12:50:53;;;;;;;1.7;1.3;;;;;;;31.83;41.68945;937.6588;;;;
2022/08/03 12:53:18;;;;;;;1.5;1.4;;;;;;;31.69;43.47266;937.6898;;;;
2022/08/03 12:55:43;;;;;;;1.3;1.2;;;;;;;31.65;43.625;937.6052;;;;
2022/08/03 12:58:11;;;;;;;1.5;1.4;;;;;;;31.8;41.4834;937.5645;;;;
2022/08/03 13:00:36;;;;;;;1.4;1.3;;;;;;;31.71;42.26563;937.5941;;;;
2022/08/03 13:03:07;;;;;;;1.6;1.3;;;;;;;31.73;41.20215;937.6166;;;;
2022/08/03 13:05:36;;;;;;;1.3;1.2;;;;;;;31.39;43.45605;937.6537;;;;
2022/08/03 13:08:01;;;;;;;2.1;1.2;;;;;;;31.5;41.64746;937.6942;;;;
2022/08/03 13:10:31;;;;;;;1.7;1.6;;;;;;;31.58;41.60742;937.6191;;;;
2022/08/03 13:12:57;;;;;;;1.5;1.4;;;;;;;31.57;41.69043;937.6428;;;;
2022/08/03 13:15:28;;;;;;;1.4;1.3;;;;;;;31.15;45.07227;937.6298;;;;
2022/08/03 13:17:52;;;;;;;1.4;1.3;;;;;;;31.09;43.29688;937.6404;;;;
2022/08/03 13:20:18;;;;;;;2.4;1.5;;;;;;;31.16;43.13477;937.6537;;;;
2022/08/03 13:22:44;;;;;;;1.6;1.5;;;;;;;31;43.52734;937.6368;;;;
2022/08/03 13:25:13;;;;;;;3.9;1.4;;;;;;;31.17;42.83789;937.5938;;;;
2022/08/03 13:27:44;;;;;;;2.5;1.2;;;;;;;31.02;46.33887;937.5701;;;;
2022/08/03 13:30:14;;;;;;;2.7;1.4;;;;;;;31.13;44.31641;937.5737;;;;
2022/08/03 13:32:39;;;;;;;2;1.3;;;;;;;31.21;42.42285;937.5731;;;;
2022/08/03 13:35:06;;;;;;;2.1;1.4;;;;;;;31.18;45.1709;937.5391;;;;
2022/08/03 13:37:32;;;;;;;1.4;1.3;;;;;;;31.03;44.01953;937.5748;;;;
2022/08/03 13:39:58;;;;;;;1.8;1.5;;;;;;;31.27;43.3125;937.5756;;;;
2022/08/03 13:42:23;;;;;;;2.6;1.6;;;;;;;31.44;43.1748;937.5682;;;;
2022/08/03 13:44:52;;;;;;;1.7;1.6;;;;;;;31.37;43.88477;937.5633;;;;
2022/08/03 13:47:17;;;;;;;1.5;1.4;;;;;;;31.31;43.5459;937.5617;;;;
2022/08/03 13:49:42;;;;;;;2.6;1.6;;;;;;;31.16;44.42676;937.5567;;;;
2022/08/03 13:52:08;;;;;;;1.3;1.2;;;;;;;31.13;44.18555;937.5309;;;;
2022/08/03 13:54:33;;;;;;;1.7;1.5;;;;;;;31.3;42.68164;937.4816;;;;
2022/08/03 13:57:01;;;;;;;3.5;1.9;;;;;;;31.32;41.75098;937.5175;;;;
2022/08/03 13:59:26;;;;;;;1.3;1.2;;;;;;;31.38;42.88086;937.4828;;;;
2022/08/03 14:01:51;;;;;;;1.5;1.4;;;;;;;31.28;42.88379;937.4866;;;;
2022/08/03 14:04:31;;;;;;;4.8;1.9;;;;;;;31.09;45.62793;937.497;;;;
2022/08/03 14:06:48;;;;;;;2.3;1.4;;;;;;;30.92;44.95313;937.4742;;;;
2022/08/03 14:09:10;;;;;;;1.7;1.4;;;;;;;31.1;43.4043;937.5424;;;;
2022/08/03 14:11:36;;;;;;;1.6;1.5;;;;;;;31.07;43.27051;937.4481;;;;
2022/08/03 14:14:01;;;;;;;1.9;1.3;;;;;;;31.23;42.91504;937.4409;;;;
2022/08/03 14:16:31;;;;;;;1.6;1.5;;;;;;;31.2;42.79199;937.4678;;;;
2022/08/03 14:18:58;;;;;;;3;1.3;;;;;;;31.27;42.67871;937.4311;;;;
2022/08/03 14:21:21;;;;;;;1.7;1.5;;;;;;;30.88;44.35254;937.4438;;;;
2022/08/03 14:23:47;;;;;;;1.6;1.5;;;;;;;30.93;42.73145;937.3928;;;;
2022/08/03 14:26:13;;;;;;;3.9;1.5;;;;;;;30.75;44.85352;937.3779;;;;
2022/08/03 14:28:39;;;;;;;1.4;1.3;;;;;;;30.81;44.09473;937.3686;;;;
2022/08/03 14:31:04;;;;;;;2;1.4;;;;;;;30.75;43.7168;937.3414;;;;
2022/08/03 14:33:31;;;;;;;1.6;1.5;;;;;;;30.87;42.77246;937.4021;;;;